Time;durP1;ratioP1;P1;durP2;ratioP2;P2;SDS_P1;SDS_P2;PMS_P1;PMS_P2;Temp;Humidity;BMP_temperature;BMP_pressure;BME280_temperature;BME280_humidity;BME280_pressure;Samples;Min_cycle;Max_cycle;Signal;HPM_P1;HPM_P2
2023/07/22 00:01:38;;;;;;;0.35;0.35;;;14.80;99.90;;;;;;4424394;32;20525;-77
2023/07/22 00:04:04;;;;;;;0.40;0.40;;;14.70;99.90;;;;;;4425454;32;20077;-76
2023/07/22 00:06:30;;;;;;;0.43;0.35;;;14.70;99.90;;;;;;4411034;32;20070;-77
2023/07/22 00:08:55;;;;;;;0.30;0.30;;;14.70;99.90;;;;;;4415277;32;20093;-77
2023/07/22 00:11:21;;;;;;;0.52;0.40;;;14.80;99.90;;;;;;4414398;32;20117;-77
2023/07/22 00:13:46;;;;;;;0.30;0.30;;;14.80;99.90;;;;;;4415338;32;20480;-76
2023/07/22 00:16:12;;;;;;;0.40;0.40;;;14.80;99.90;;;;;;4416068;32;20128;-76
2023/07/22 00:18:38;;;;;;;0.40;0.40;;;14.80;99.90;;;;;;4410064;32;20062;-77
2023/07/22 00:21:04;;;;;;;0.40;0.40;;;14.80;99.90;;;;;;4413340;32;20065;-76
2023/07/22 00:23:30;;;;;;;0.43;0.43;;;14.70;99.90;;;;;;4417501;32;20090;-77
2023/07/22 00:25:55;;;;;;;0.30;0.30;;;14.80;99.90;;;;;;4407815;32;20438;-76
2023/07/22 00:28:21;;;;;;;0.47;0.47;;;14.80;99.90;;;;;;4424852;32;20066;-77
2023/07/22 00:30:48;;;;;;;0.30;0.30;;;14.80;99.90;;;;;;4414627;32;20065;-77
2023/07/22 00:33:14;;;;;;;0.45;0.45;;;14.80;99.90;;;;;;4412593;32;20086;-77
2023/07/22 00:35:40;;;;;;;0.50;0.50;;;14.90;99.90;;;;;;4412568;32;20074;-76
2023/07/22 00:38:05;;;;;;;0.50;0.50;;;14.90;99.90;;;;;;4413230;32;20266;-77
2023/07/22 00:40:32;;;;;;;0.47;0.47;;;15.00;99.90;;;;;;4422222;32;20090;-77
2023/07/22 00:42:57;;;;;;;0.62;0.57;;;14.90;99.90;;;;;;4422675;32;20523;-77
2023/07/22 00:45:23;;;;;;;0.37;0.37;;;14.90;99.90;;;;;;4415574;32;20062;-77
2023/07/22 00:47:49;;;;;;;0.50;0.50;;;14.90;99.90;;;;;;4423781;32;20133;-77
2023/07/22 00:50:15;;;;;;;0.52;0.40;;;14.90;99.90;;;;;;4424322;32;20065;-78
2023/07/22 00:52:40;;;;;;;0.37;0.37;;;14.90;99.90;;;;;;4425668;32;20078;-76
2023/07/22 00:55:07;;;;;;;0.40;0.40;;;14.90;99.90;;;;;;4412940;32;20530;-78
2023/07/22 00:57:33;;;;;;;0.40;0.40;;;14.80;99.90;;;;;;4409360;32;20536;-77
2023/07/22 00:59:59;;;;;;;0.50;0.50;;;14.90;99.90;;;;;;4417252;32;20081;-77
2023/07/22 01:02:24;;;;;;;2.30;1.17;;;14.80;99.90;;;;;;4417989;32;20070;-77
2023/07/22 01:04:51;;;;;;;0.30;0.30;;;14.80;99.90;;;;;;4413843;32;20042;-77
2023/07/22 01:07:17;;;;;;;0.60;0.60;;;14.90;99.90;;;;;;4412783;32;20058;-77
2023/07/22 01:09:43;;;;;;;0.65;0.40;;;14.90;99.90;;;;;;4413225;32;20316;-77
2023/07/22 01:12:10;;;;;;;0.43;0.43;;;14.90;99.90;;;;;;4412364;32;20121;-77
2023/07/22 01:14:37;;;;;;;0.30;0.30;;;14.90;99.90;;;;;;4412476;32;20556;-76
2023/07/22 01:17:04;;;;;;;0.40;0.40;;;14.80;99.90;;;;;;4404628;32;20113;-77
2023/07/22 01:19:30;;;;;;;0.40;0.40;;;14.90;99.90;;;;;;4410568;32;20079;-77
2023/07/22 01:21:59;;;;;;;0.30;0.30;;;14.80;99.90;;;;;;4412916;32;20070;-76
2023/07/22 01:24:24;;;;;;;0.30;0.30;;;14.80;99.90;;;;;;4413658;32;20096;-76
2023/07/22 01:26:50;;;;;;;0.52;0.40;;;14.90;99.90;;;;;;4413847;32;20067;-77
2023/07/22 01:29:15;;;;;;;0.30;0.30;;;14.90;99.90;;;;;;4409230;32;20070;-77
2023/07/22 01:31:41;;;;;;;0.43;0.43;;;14.90;99.90;;;;;;4413986;32;20074;-77
2023/07/22 01:34:06;;;;;;;0.70;0.70;;;14.90;99.90;;;;;;4412561;32;20082;-76
2023/07/22 01:36:32;;;;;;;0.52;0.50;;;14.90;99.90;;;;;;4411962;32;20086;-76
2023/07/22 01:38:57;;;;;;;0.40;0.40;;;15.00;99.90;;;;;;4412313;32;20026;-76
2023/07/22 01:41:23;;;;;;;0.60;0.60;;;15.00;99.90;;;;;;4406022;32;20089;-76
2023/07/22 01:43:51;;;;;;;0.32;0.32;;;15.00;99.90;;;;;;4409807;32;20050;-76
2023/07/22 01:46:17;;;;;;;0.47;0.43;;;15.00;99.90;;;;;;4408599;32;20178;-76
2023/07/22 01:48:42;;;;;;;0.40;0.40;;;14.90;99.90;;;;;;4412602;32;20086;-77
2023/07/22 01:51:08;;;;;;;0.40;0.40;;;14.90;99.90;;;;;;4411097;32;20110;-77
2023/07/22 01:53:34;;;;;;;1.83;0.60;;;14.90;99.90;;;;;;4412363;32;20103;-77
2023/07/22 01:56:00;;;;;;;0.43;0.43;;;14.90;99.90;;;;;;4408432;32;20070;-77
2023/07/22 01:58:25;;;;;;;0.40;0.40;;;15.00;99.90;;;;;;4414568;32;20062;-77
2023/07/22 02:00:51;;;;;;;0.40;0.40;;;14.90;99.90;;;;;;4411038;32;20584;-77
2023/07/22 02:03:16;;;;;;;0.30;0.30;;;14.90;99.90;;;;;;4424126;32;20074;-77
2023/07/22 02:05:42;;;;;;;3.25;0.80;;;14.90;99.90;;;;;;4425329;32;20090;-76
2023/07/22 02:08:07;;;;;;;0.47;0.47;;;14.90;99.90;;;;;;4420166;32;20108;-76
2023/07/22 02:10:33;;;;;;;0.43;0.43;;;15.00;99.90;;;;;;4408681;32;20086;-76
2023/07/22 02:12:58;;;;;;;0.40;0.40;;;14.90;99.90;;;;;;4417939;32;20042;-76
2023/07/22 02:15:24;;;;;;;0.60;0.60;;;14.90;99.90;;;;;;4418534;32;20094;-76
2023/07/22 02:17:50;;;;;;;0.50;0.50;;;15.00;99.90;;;;;;4417352;32;20121;-77
2023/07/22 02:20:15;;;;;;;1.65;0.80;;;14.90;99.90;;;;;;4418039;32;20109;-77
2023/07/22 02:22:41;;;;;;;0.50;0.50;;;14.90;99.90;;;;;;4422180;32;20129;-76
2023/07/22 02:25:07;;;;;;;31.90;0.82;;;14.90;99.90;;;;;;4418687;32;20042;-77
2023/07/22 02:27:32;;;;;;;0.47;0.47;;;15.00;99.90;;;;;;4420516;32;20061;-77
2023/07/22 02:29:58;;;;;;;0.85;0.85;;;14.90;99.90;;;;;;4420357;32;20084;-76
2023/07/22 02:32:23;;;;;;;0.40;0.40;;;14.80;99.90;;;;;;4412413;32;20082;-76
2023/07/22 02:34:49;;;;;;;0.40;0.40;;;14.80;99.90;;;;;;4411339;32;20093;-76
2023/07/22 02:37:15;;;;;;;0.60;0.60;;;14.80;99.90;;;;;;4413487;32;20125;-77
2023/07/22 02:39:40;;;;;;;0.60;0.60;;;14.90;99.90;;;;;;4422600;32;20061;-77
2023/07/22 02:42:06;;;;;;;0.62;0.62;;;14.80;99.90;;;;;;4418681;32;20066;-76
2023/07/22 02:44:31;;;;;;;0.45;0.45;;;14.80;99.90;;;;;;4414710;32;20129;-76
2023/07/22 02:46:57;;;;;;;0.40;0.40;;;14.80;99.90;;;;;;4414951;32;20070;-77
2023/07/22 02:49:22;;;;;;;0.32;0.32;;;14.70;99.90;;;;;;4417119;32;20098;-77
2023/07/22 02:51:48;;;;;;;0.45;0.45;;;14.70;99.90;;;;;;4411092;32;20066;-76
2023/07/22 02:54:13;;;;;;;0.88;0.75;;;14.60;99.90;;;;;;4417598;32;20121;-77
2023/07/22 02:56:39;;;;;;;0.45;0.45;;;14.60;99.90;;;;;;4419304;32;20061;-78
2023/07/22 02:59:04;;;;;;;0.47;0.47;;;14.50;99.90;;;;;;4418957;32;20085;-77
2023/07/22 03:01:30;;;;;;;0.37;0.37;;;14.50;99.90;;;;;;4412111;32;20129;-77
2023/07/22 03:03:55;;;;;;;0.85;0.52;;;14.50;99.90;;;;;;4423088;32;20074;-76
2023/07/22 03:06:21;;;;;;;0.57;0.50;;;14.60;99.90;;;;;;4423233;32;20112;-76
2023/07/22 03:08:48;;;;;;;0.30;0.30;;;14.60;99.90;;;;;;4423097;32;20086;-76
2023/07/22 03:11:14;;;;;;;0.50;0.50;;;14.60;99.90;;;;;;4423257;32;20074;-76
2023/07/22 03:13:39;;;;;;;0.52;0.52;;;14.60;99.90;;;;;;4421811;32;20083;-77
2023/07/22 03:16:05;;;;;;;0.40;0.40;;;14.60;99.90;;;;;;4422724;32;20085;-77
2023/07/22 03:18:31;;;;;;;0.40;0.40;;;14.50;99.90;;;;;;4420666;32;20132;-77
2023/07/22 03:20:57;;;;;;;0.37;0.37;;;14.60;99.90;;;;;;4426818;32;20069;-76
2023/07/22 03:23:22;;;;;;;0.77;0.55;;;14.60;99.90;;;;;;4424611;32;20074;-76
2023/07/22 03:25:48;;;;;;;0.30;0.30;;;14.60;99.90;;;;;;4419887;32;20061;-76
2023/07/22 03:28:13;;;;;;;0.30;0.30;;;14.50;99.90;;;;;;4417594;32;20073;-76
2023/07/22 03:30:39;;;;;;;0.37;0.37;;;14.50;99.90;;;;;;4410574;32;20067;-77
2023/07/22 03:33:05;;;;;;;0.30;0.30;;;14.50;99.90;;;;;;4410876;32;20452;-76
2023/07/22 03:35:32;;;;;;;0.30;0.30;;;14.40;99.90;;;;;;4410364;32;20082;-77
2023/07/22 03:37:58;;;;;;;0.30;0.30;;;14.50;99.90;;;;;;4409772;32;20074;-76
2023/07/22 03:40:29;;;;;;;0.65;0.65;;;14.50;99.90;;;;;;4423464;32;20102;-76
2023/07/22 03:42:55;;;;;;;;;;;14.50;99.90;;;;;;4420677;32;20089;-76
2023/07/22 03:45:21;;;;;;;0.32;0.32;;;14.50;99.90;;;;;;4423346;32;19934;-76
2023/07/22 03:47:51;;;;;;;1.65;0.82;;;14.50;99.90;;;;;;4424604;32;20077;-77
2023/07/22 03:50:16;;;;;;;0.30;0.30;;;14.60;99.90;;;;;;4424353;32;20498;-77
2023/07/22 03:52:42;;;;;;;0.32;0.32;;;14.50;99.90;;;;;;4423311;32;20082;-76
2023/07/22 03:55:11;;;;;;;0.30;0.30;;;14.50;99.90;;;;;;4421471;32;20169;-76
2023/07/22 03:57:36;;;;;;;0.40;0.40;;;14.40;99.90;;;;;;4423799;32;20078;-77
2023/07/22 04:00:04;;;;;;;0.60;0.60;;;14.30;99.90;;;;;;4416435;32;20090;-77
2023/07/22 04:02:29;;;;;;;0.37;0.37;;;14.40;99.90;;;;;;4426210;32;20066;-76
2023/07/22 04:04:55;;;;;;;0.47;0.47;;;14.30;99.90;;;;;;4421892;32;20114;-76
2023/07/22 04:07:21;;;;;;;0.40;0.40;;;14.30;99.90;;;;;;4413351;32;20070;-76
2023/07/22 04:09:48;;;;;;;0.50;0.50;;;14.30;99.90;;;;;;4422951;32;20066;-76
2023/07/22 04:12:13;;;;;;;0.30;0.30;;;14.40;99.90;;;;;;4424706;32;20063;-76
2023/07/22 04:14:40;;;;;;;0.40;0.40;;;14.40;99.90;;;;;;4407899;32;20077;-76
2023/07/22 04:17:05;;;;;;;0.40;0.40;;;14.30;99.90;;;;;;4412823;32;20077;-76
2023/07/22 04:19:31;;;;;;;0.20;0.20;;;14.40;99.90;;;;;;4423104;32;20061;-76
2023/07/22 04:21:57;;;;;;;0.40;0.40;;;14.40;99.90;;;;;;4412312;32;20529;-76
2023/07/22 04:24:22;;;;;;;0.25;0.25;;;14.40;99.90;;;;;;4418705;32;20116;-76
2023/07/22 04:26:48;;;;;;;0.30;0.30;;;14.40;99.90;;;;;;4416173;32;20061;-76
2023/07/22 04:29:14;;;;;;;0.30;0.30;;;14.40;99.90;;;;;;4419348;32;20094;-76
2023/07/22 04:31:39;;;;;;;0.40;0.40;;;14.50;99.90;;;;;;4416356;32;20472;-76
2023/07/22 04:34:05;;;;;;;0.30;0.30;;;14.40;99.90;;;;;;4416304;32;20153;-76
2023/07/22 04:36:31;;;;;;;0.30;0.30;;;14.40;99.90;;;;;;4415456;32;20423;-75
2023/07/22 04:38:57;;;;;;;0.40;0.40;;;14.50;99.90;;;;;;4416010;32;20054;-75
2023/07/22 04:41:22;;;;;;;0.45;0.35;;;14.50;99.90;;;;;;4401917;32;20087;-76
2023/07/22 04:43:48;;;;;;;0.40;0.40;;;14.50;99.90;;;;;;4414338;32;20065;-76
2023/07/22 04:46:14;;;;;;;0.47;0.47;;;14.60;99.90;;;;;;4415355;32;20069;-75
2023/07/22 04:48:39;;;;;;;0.40;0.40;;;14.60;99.90;;;;;;4417142;32;20125;-75
2023/07/22 04:51:05;;;;;;;0.30;0.30;;;14.60;99.90;;;;;;4414664;32;20535;-77
2023/07/22 04:53:30;;;;;;;0.30;0.30;;;14.60;99.90;;;;;;4417095;32;20065;-75
2023/07/22 04:55:56;;;;;;;1.52;0.90;;;14.60;99.90;;;;;;4416825;32;20065;-77
2023/07/22 04:58:21;;;;;;;0.30;0.30;;;14.50;99.90;;;;;;4414922;32;20076;-76
2023/07/22 05:00:48;;;;;;;0.30;0.30;;;14.60;99.90;;;;;;4416243;32;20077;-76
2023/07/22 05:03:14;;;;;;;0.40;0.40;;;14.60;99.90;;;;;;4415209;32;20086;-76
2023/07/22 05:05:39;;;;;;;0.95;0.50;;;14.60;99.90;;;;;;4416252;32;20074;-77
2023/07/22 05:08:07;;;;;;;3.62;1.15;;;14.60;99.90;;;;;;4416214;32;20431;-76
2023/07/22 05:10:32;;;;;;;0.40;0.40;;;14.60;99.90;;;;;;4415033;32;20073;-76
2023/07/22 05:12:58;;;;;;;0.60;0.60;;;14.70;99.90;;;;;;4415819;32;20074;-77
2023/07/22 05:15:23;;;;;;;3.12;0.50;;;14.70;99.90;;;;;;4415412;32;20078;-74
2023/07/22 05:17:49;;;;;;;1.90;0.82;;;14.80;99.90;;;;;;4405463;32;20074;-76
2023/07/22 05:20:14;;;;;;;0.50;0.50;;;14.80;99.90;;;;;;4401952;32;20090;-76
2023/07/22 05:22:40;;;;;;;0.35;0.35;;;14.80;99.90;;;;;;4408066;32;20054;-76
2023/07/22 05:25:06;;;;;;;0.35;0.35;;;14.70;99.90;;;;;;4422040;32;20098;-75
2023/07/22 05:27:33;;;;;;;0.35;0.35;;;14.70;99.90;;;;;;4402186;32;20494;-76
2023/07/22 05:29:58;;;;;;;2.10;0.68;;;14.70;99.90;;;;;;4415127;32;20078;-76
2023/07/22 05:32:24;;;;;;;0.40;0.40;;;14.80;99.90;;;;;;4413935;32;20082;-76
2023/07/22 05:34:49;;;;;;;0.40;0.40;;;14.90;99.90;;;;;;4420986;32;20082;-76
2023/07/22 05:37:15;;;;;;;0.60;0.60;;;14.90;99.90;;;;;;4417873;32;20094;-76
2023/07/22 05:39:40;;;;;;;0.55;0.55;;;15.00;99.90;;;;;;4402999;32;20078;-76
2023/07/22 05:42:06;;;;;;;0.30;0.30;;;15.00;99.90;;;;;;4400823;32;20062;-76
2023/07/22 05:44:31;;;;;;;1.02;0.93;;;15.00;99.90;;;;;;4416572;32;20069;-77
2023/07/22 05:46:57;;;;;;;0.52;0.52;;;15.00;99.90;;;;;;4409363;32;20125;-76
2023/07/22 05:49:22;;;;;;;0.40;0.40;;;15.00;99.90;;;;;;4407984;32;20529;-76
2023/07/22 05:51:48;;;;;;;0.28;0.28;;;15.00;99.90;;;;;;4409966;32;20074;-76
2023/07/22 05:54:14;;;;;;;0.40;0.40;;;15.00;99.90;;;;;;4415792;32;20065;-76
2023/07/22 05:56:39;;;;;;;1.08;0.75;;;15.00;99.90;;;;;;4415921;32;20058;-76
2023/07/22 05:59:05;;;;;;;0.62;0.62;;;15.10;99.90;;;;;;4415480;32;20530;-76
2023/07/22 06:01:31;;;;;;;0.70;0.65;;;15.10;99.90;;;;;;4416318;32;20082;-76
2023/07/22 06:03:56;;;;;;;0.60;0.60;;;15.10;99.90;;;;;;4411518;32;20125;-76
2023/07/22 06:06:22;;;;;;;0.30;0.30;;;15.10;99.90;;;;;;4416239;32;20102;-76
2023/07/22 06:08:47;;;;;;;0.93;0.62;;;15.10;99.90;;;;;;4414033;32;20128;-76
2023/07/22 06:11:13;;;;;;;0.57;0.57;;;15.20;99.90;;;;;;4409119;32;20371;-76
2023/07/22 06:13:38;;;;;;;3.90;0.85;;;15.30;99.90;;;;;;4406720;32;20130;-76
2023/07/22 06:16:04;;;;;;;0.40;0.40;;;15.30;99.90;;;;;;4407124;32;20293;-76
2023/07/22 06:18:29;;;;;;;0.70;0.65;;;15.40;99.90;;;;;;4412058;32;20099;-76
2023/07/22 06:20:55;;;;;;;9.75;2.90;;;15.40;99.90;;;;;;4412925;32;20070;-76
2023/07/22 06:23:20;;;;;;;0.40;0.40;;;15.50;99.90;;;;;;4408161;32;20074;-76
2023/07/22 06:25:47;;;;;;;0.50;0.50;;;15.50;99.90;;;;;;4408737;32;20073;-76
2023/07/22 06:28:12;;;;;;;0.45;0.43;;;15.60;99.90;;;;;;4409970;32;20073;-75
2023/07/22 06:30:38;;;;;;;0.30;0.30;;;15.70;99.90;;;;;;4414874;32;20174;-76
2023/07/22 06:33:03;;;;;;;0.50;0.50;;;15.70;99.90;;;;;;4413661;32;20070;-76
2023/07/22 06:35:29;;;;;;;1.25;0.75;;;15.80;99.90;;;;;;4414398;32;20065;-75
2023/07/22 06:37:54;;;;;;;0.30;0.30;;;15.80;99.90;;;;;;4418524;32;20081;-75
2023/07/22 06:40:20;;;;;;;0.30;0.30;;;15.90;99.90;;;;;;4414658;32;20061;-75
2023/07/22 06:42:45;;;;;;;0.40;0.40;;;15.90;99.90;;;;;;4415389;32;20462;-75
2023/07/22 06:45:11;;;;;;;0.37;0.37;;;16.00;99.90;;;;;;4414268;32;20087;-76
2023/07/22 06:47:36;;;;;;;3.12;0.40;;;16.10;99.90;;;;;;4414893;32;20085;-76
2023/07/22 06:50:04;;;;;;;0.40;0.40;;;16.10;99.90;;;;;;4419653;32;20120;-76
2023/07/22 06:52:30;;;;;;;0.30;0.30;;;16.10;99.90;;;;;;4414098;32;20573;-77
2023/07/22 06:54:55;;;;;;;0.30;0.30;;;16.20;99.90;;;;;;4419194;32;20118;-75
2023/07/22 06:57:21;;;;;;;1.25;0.75;;;16.10;99.90;;;;;;4421225;32;20121;-76
2023/07/22 06:59:47;;;;;;;0.40;0.40;;;16.10;99.90;;;;;;4422598;32;20073;-76
2023/07/22 07:02:12;;;;;;;1.00;0.52;;;16.30;99.90;;;;;;4416931;32;20472;-77
2023/07/22 07:04:37;;;;;;;2.08;0.50;;;16.40;99.90;;;;;;4404115;32;20105;-76
2023/07/22 07:07:04;;;;;;;0.40;0.40;;;16.50;99.90;;;;;;4410867;32;20078;-73
2023/07/22 07:09:30;;;;;;;0.40;0.40;;;16.60;99.90;;;;;;4413877;32;20760;-77
2023/07/22 07:11:56;;;;;;;0.95;0.52;;;16.60;99.90;;;;;;4404376;32;20066;-75
2023/07/22 07:14:23;;;;;;;1.27;0.70;;;16.60;99.90;;;;;;4409949;32;20066;-76
2023/07/22 07:16:49;;;;;;;0.60;0.60;;;16.50;99.90;;;;;;4415119;32;20062;-76
2023/07/22 07:19:14;;;;;;;0.35;0.35;;;16.40;99.90;;;;;;4417350;32;20065;-75
2023/07/22 07:21:40;;;;;;;0.40;0.40;;;16.40;99.90;;;;;;4417644;32;20062;-75
2023/07/22 07:24:05;;;;;;;0.37;0.37;;;16.50;99.90;;;;;;4405694;32;20086;-75
2023/07/22 07:26:31;;;;;;;0.30;0.30;;;16.60;99.90;;;;;;4402116;32;20065;-76
2023/07/22 07:28:56;;;;;;;0.50;0.50;;;16.70;99.90;;;;;;4409561;32;20426;-75
2023/07/22 07:31:22;;;;;;;0.30;0.30;;;16.80;99.90;;;;;;4413280;32;20133;-77
2023/07/22 07:33:48;;;;;;;0.37;0.37;;;16.70;99.90;;;;;;4406802;32;20062;-77
2023/07/22 07:36:14;;;;;;;0.75;0.68;;;16.70;99.90;;;;;;4410027;32;20065;-76
2023/07/22 07:38:41;;;;;;;1.17;0.40;;;16.70;99.90;;;;;;4418154;32;20065;-77
2023/07/22 07:41:08;;;;;;;0.50;0.50;;;16.80;99.90;;;;;;4417046;32;20116;-76
2023/07/22 07:43:34;;;;;;;0.50;0.50;;;16.90;99.90;;;;;;4417502;32;20066;-76
2023/07/22 07:46:20;;;;;;;0.52;0.43;;;17.10;99.90;;;;;;4416415;32;20065;-76
2023/07/22 07:48:47;;;;;;;0.30;0.30;;;17.20;99.90;;;;;;4402286;32;20097;-77
2023/07/22 07:51:14;;;;;;;0.40;0.40;;;17.30;99.90;;;;;;4416344;32;20078;-75
2023/07/22 07:53:42;;;;;;;0.68;0.68;;;17.30;99.90;;;;;;4417729;32;20619;-77
2023/07/22 07:56:08;;;;;;;4.75;0.50;;;17.40;99.90;;;;;;4415460;32;20419;-76
2023/07/22 07:58:34;;;;;;;0.40;0.40;;;17.50;99.90;;;;;;4417076;32;20083;-76
2023/07/22 08:00:59;;;;;;;0.43;0.43;;;17.40;99.90;;;;;;4416267;32;20454;-76
2023/07/22 08:03:25;;;;;;;4.85;0.45;;;17.20;99.90;;;;;;4414720;32;20078;-76
2023/07/22 08:05:50;;;;;;;1.17;0.90;;;17.20;99.90;;;;;;4412236;32;20101;-78
2023/07/22 08:08:16;;;;;;;0.40;0.40;;;17.30;99.90;;;;;;4408507;32;20075;-76
2023/07/22 08:10:43;;;;;;;0.40;0.40;;;17.50;99.90;;;;;;4417139;32;20493;-78
2023/07/22 08:13:08;;;;;;;0.37;0.37;;;17.50;99.90;;;;;;4410899;32;20108;-77
2023/07/22 08:15:34;;;;;;;0.45;0.45;;;17.40;99.90;;;;;;4407650;32;20509;-76
2023/07/22 08:17:59;;;;;;;0.70;0.70;;;17.40;99.90;;;;;;4417437;32;20052;-76
2023/07/22 08:20:25;;;;;;;1.15;0.40;;;17.30;99.90;;;;;;4416952;32;20085;-76
2023/07/22 08:22:50;;;;;;;0.40;0.40;;;17.30;99.90;;;;;;4415186;32;20058;-77
2023/07/22 08:25:16;;;;;;;0.40;0.40;;;17.40;99.90;;;;;;4414755;32;20081;-75
2023/07/22 08:27:41;;;;;;;2.83;1.40;;;17.40;99.90;;;;;;4417588;32;20075;-74
2023/07/22 08:30:07;;;;;;;0.40;0.40;;;17.50;99.90;;;;;;4416498;32;20066;-77
2023/07/22 08:32:33;;;;;;;0.47;0.47;;;17.70;99.90;;;;;;4411425;32;20094;-76
2023/07/22 08:34:59;;;;;;;0.73;0.47;;;17.70;99.90;;;;;;4414479;32;20085;-75
2023/07/22 08:37:24;;;;;;;0.60;0.60;;;17.80;99.90;;;;;;4415113;32;20638;-76
2023/07/22 08:39:49;;;;;;;0.57;0.57;;;17.70;99.90;;;;;;4413874;32;20509;-76
2023/07/22 08:42:19;;;;;;;0.47;0.45;;;17.70;99.90;;;;;;4407443;32;20062;-75
2023/07/22 08:44:48;;;;;;;0.50;0.50;;;17.80;99.90;;;;;;4405532;32;20124;-75
2023/07/22 08:47:17;;;;;;;0.30;0.30;;;18.00;99.90;;;;;;4416699;32;20077;-77
2023/07/22 08:49:50;;;;;;;0.50;0.50;;;18.10;99.90;;;;;;4417616;32;20121;-75
2023/07/22 08:52:17;;;;;;;10.38;0.77;;;18.10;99.90;;;;;;4418044;32;20087;-75
2023/07/22 08:54:44;;;;;;;0.47;0.47;;;18.30;99.90;;;;;;4416890;32;20129;-76
2023/07/22 08:57:11;;;;;;;0.45;0.45;;;18.50;99.90;;;;;;4408700;32;20069;-75
2023/07/22 08:59:37;;;;;;;0.40;0.40;;;18.80;99.90;;;;;;4402202;32;20145;-76
2023/07/22 09:02:03;;;;;;;1.48;1.02;;;18.90;99.90;;;;;;4404687;32;20078;-76
2023/07/22 09:04:29;;;;;;;0.52;0.52;;;18.80;99.90;;;;;;4405840;32;20082;-76
2023/07/22 09:06:56;;;;;;;1.40;0.45;;;18.60;99.90;;;;;;4408171;32;20275;-76
2023/07/22 09:09:23;;;;;;;0.40;0.40;;;18.50;99.90;;;;;;4417826;32;20070;-76
2023/07/22 09:11:49;;;;;;;0.30;0.30;;;18.50;99.90;;;;;;4413627;32;20087;-75
2023/07/22 09:14:18;;;;;;;0.40;0.40;;;18.50;99.90;;;;;;4404353;32;20066;-76
2023/07/22 09:16:44;;;;;;;2.08;0.50;;;18.40;99.90;;;;;;4411226;32;20074;-76
2023/07/22 09:19:09;;;;;;;0.37;0.37;;;18.30;99.90;;;;;;4416178;32;20094;-76
2023/07/22 09:21:35;;;;;;;0.47;0.47;;;18.50;99.90;;;;;;4404676;32;20077;-77
2023/07/22 09:24:01;;;;;;;0.30;0.30;;;18.60;99.90;;;;;;4416098;32;20425;-76
2023/07/22 09:26:26;;;;;;;0.73;0.50;;;18.80;99.90;;;;;;4404693;32;20077;-78
2023/07/22 09:28:55;;;;;;;1.02;0.60;;;19.00;99.90;;;;;;4413376;32;20092;-76
2023/07/22 09:31:21;;;;;;;0.30;0.30;;;19.10;99.90;;;;;;4408879;32;20399;-76
2023/07/22 09:33:47;;;;;;;0.30;0.30;;;19.30;99.90;;;;;;4408276;32;20087;-77
2023/07/22 09:36:13;;;;;;;0.32;0.32;;;19.30;99.90;;;;;;4406771;32;20506;-77
2023/07/22 09:38:39;;;;;;;0.30;0.30;;;19.10;99.90;;;;;;4415007;32;20074;-75
2023/07/22 09:41:05;;;;;;;0.40;0.40;;;19.20;99.90;;;;;;4416490;32;20609;-74
2023/07/22 09:43:30;;;;;;;0.55;0.55;;;19.40;99.90;;;;;;4416252;32;20077;-76
2023/07/22 09:46:05;;;;;;;0.30;0.30;;;19.30;99.90;;;;;;4411908;32;20070;-75
2023/07/22 09:48:38;;;;;;;0.35;0.35;;;19.30;99.90;;;;;;4404668;32;20066;-76
2023/07/22 09:51:04;;;;;;;13.25;0.37;;;19.30;99.90;;;;;;4400241;32;20521;-77
2023/07/22 09:53:29;;;;;;;0.30;0.30;;;19.30;99.90;;;;;;4411571;32;20081;-77
2023/07/22 09:55:55;;;;;;;0.40;0.40;;;19.10;99.90;;;;;;4411372;32;20132;-77
2023/07/22 09:58:24;;;;;;;0.50;0.50;;;19.20;99.90;;;;;;4415180;32;20533;-76
2023/07/22 10:00:50;;;;;;;0.30;0.30;;;19.40;99.90;;;;;;4414706;32;20066;-77
2023/07/22 10:03:18;;;;;;;0.30;0.30;;;19.50;99.90;;;;;;4416229;32;20073;-77
2023/07/22 10:05:47;;;;;;;0.30;0.30;;;19.50;99.90;;;;;;4416368;32;20437;-75
2023/07/22 10:08:15;;;;;;;0.28;0.28;;;19.30;99.90;;;;;;4416681;32;20069;-75
2023/07/22 10:10:43;;;;;;;1.85;0.60;;;19.50;99.90;;;;;;4405625;32;20058;-75
2023/07/22 10:13:09;;;;;;;0.50;0.50;;;19.60;99.90;;;;;;4404248;32;20070;-75
2023/07/22 10:15:36;;;;;;;0.28;0.28;;;19.80;99.90;;;;;;4415903;32;20505;-75
2023/07/22 10:18:03;;;;;;;0.30;0.30;;;19.90;99.90;;;;;;4413252;32;20391;-75
2023/07/22 10:20:29;;;;;;;0.40;0.40;;;20.00;99.90;;;;;;4408143;32;20509;-75
2023/07/22 10:22:55;;;;;;;0.40;0.40;;;20.10;99.90;;;;;;4406880;32;20093;-76
2023/07/22 10:25:22;;;;;;;0.30;0.30;;;20.00;99.90;;;;;;4409591;32;20065;-76
2023/07/22 10:27:49;;;;;;;1.90;1.00;;;20.00;99.90;;;;;;4406260;32;20066;-74
2023/07/22 10:30:17;;;;;;;0.55;0.43;;;20.00;99.90;;;;;;4413233;32;20086;-76
2023/07/22 10:32:45;;;;;;;0.28;0.28;;;19.90;99.90;;;;;;4408046;32;20073;-76
2023/07/22 10:35:16;;;;;;;0.77;0.45;;;19.90;99.90;;;;;;4401425;32;20141;-75
2023/07/22 10:37:45;;;;;;;0.35;0.35;;;20.10;99.90;;;;;;4402020;32;20542;-75
2023/07/22 10:40:22;;;;;;;0.40;0.40;;;20.40;99.90;;;;;;4420584;32;20061;-76
2023/07/22 10:43:05;;;;;;;0.47;0.45;;;20.40;99.90;;;;;;4400191;32;20488;-75
2023/07/22 10:45:32;;;;;;;0.55;0.55;;;20.70;99.90;;;;;;4410092;32;20109;-77
2023/07/22 10:48:08;;;;;;;1.75;0.60;;;20.90;99.90;;;;;;4412420;32;20071;-76
2023/07/22 10:50:43;;;;;;;1.33;0.47;;;21.10;99.90;;;;;;4407102;32;20059;-77
2023/07/22 10:53:10;;;;;;;0.32;0.32;;;21.20;99.90;;;;;;4408882;32;20066;-75
2023/07/22 10:56:04;;;;;;;0.80;0.30;;;21.40;99.90;;;;;;4401737;32;20070;-77
2023/07/22 10:58:32;;;;;;;0.40;0.40;;;21.20;99.90;;;;;;4408325;32;20074;-76
2023/07/22 11:01:33;;;;;;;0.40;0.40;;;20.90;99.90;;;;;;4419202;32;20070;-75
2023/07/22 11:04:10;;;;;;;0.80;0.68;;;21.10;99.90;;;;;;4398588;32;20078;-75
2023/07/22 11:06:39;;;;;;;0.40;0.40;;;21.50;99.90;;;;;;4401394;32;20066;-76
2023/07/22 11:09:05;;;;;;;1.20;0.43;;;21.50;99.90;;;;;;4410432;32;20057;-76
2023/07/22 11:11:48;;;;;;;0.30;0.30;;;21.10;99.90;;;;;;4407585;32;20546;-76
2023/07/22 11:14:15;;;;;;;1.40;0.50;;;20.70;99.90;;;;;;4404751;32;20086;-75
2023/07/22 11:16:44;;;;;;;0.28;0.28;;;20.80;99.90;;;;;;4412791;32;20078;-75
2023/07/22 11:19:10;;;;;;;0.35;0.32;;;20.90;99.90;;;;;;4407996;32;20077;-77
2023/07/22 11:21:36;;;;;;;0.35;0.30;;;21.20;99.90;;;;;;4417114;32;20119;-77
2023/07/22 11:24:04;;;;;;;0.30;0.30;;;21.50;99.90;;;;;;4418636;32;20078;-75
2023/07/22 11:26:30;;;;;;;0.32;0.32;;;21.90;99.00;;;;;;4417111;32;20083;-76
2023/07/22 11:28:57;;;;;;;2.58;0.68;;;22.50;98.30;;;;;;4414734;32;20084;-75
2023/07/22 11:31:22;;;;;;;0.43;0.43;;;22.90;97.40;;;;;;4413673;32;20537;-76
2023/07/22 11:33:48;;;;;;;0.30;0.30;;;22.70;97.10;;;;;;4416382;32;20070;-75
2023/07/22 11:36:13;;;;;;;0.25;0.22;;;22.60;97.70;;;;;;4413546;32;20074;-76
2023/07/22 11:38:39;;;;;;;0.60;0.50;;;22.70;97.20;;;;;;4410746;32;20078;-76
2023/07/22 11:41:05;;;;;;;1.25;0.35;;;22.60;96.80;;;;;;4411248;32;20077;-76
2023/07/22 11:43:31;;;;;;;0.55;0.40;;;22.30;97.30;;;;;;4417670;32;20072;-75
2023/07/22 11:45:57;;;;;;;3.30;0.77;;;22.30;97.30;;;;;;4414228;32;84615;-77
2023/07/22 11:48:23;;;;;;;0.20;0.20;;;22.30;96.70;;;;;;4417222;32;20069;-76
2023/07/22 11:50:48;;;;;;;0.20;0.20;;;22.50;96.20;;;;;;4417181;32;20094;-75
2023/07/22 11:53:14;;;;;;;0.43;0.43;;;22.90;95.80;;;;;;4416224;32;20109;-75
2023/07/22 11:55:40;;;;;;;0.20;0.20;;;23.20;95.50;;;;;;4417914;32;20061;-75
2023/07/22 11:58:06;;;;;;;0.60;0.60;;;23.20;94.80;;;;;;4418313;32;20383;-75
2023/07/22 12:00:33;;;;;;;1.55;0.50;;;23.20;95.00;;;;;;4409599;32;20128;-76
2023/07/22 12:03:05;;;;;;;0.20;0.20;;;23.30;94.80;;;;;;4409718;32;20070;-75
2023/07/22 12:05:35;;;;;;;0.20;0.20;;;22.80;95.40;;;;;;4415547;32;20062;-76
2023/07/22 12:08:03;;;;;;;0.40;0.40;;;22.60;95.90;;;;;;4418115;32;20058;-75
2023/07/22 12:10:29;;;;;;;0.35;0.35;;;22.30;95.90;;;;;;4417232;32;20061;-75
2023/07/22 12:12:54;;;;;;;0.20;0.20;;;22.30;96.70;;;;;;4419860;32;20120;-76
2023/07/22 12:15:21;;;;;;;0.70;0.30;;;22.40;96.60;;;;;;4417294;32;20500;-76
2023/07/22 12:17:51;;;;;;;0.22;0.22;;;22.60;95.90;;;;;;4417800;32;20074;-76
2023/07/22 12:20:18;;;;;;;1.00;0.30;;;23.00;95.40;;;;;;4422529;32;20467;-76
2023/07/22 12:22:43;;;;;;;0.30;0.30;;;23.70;95.20;;;;;;4419797;32;20097;-76
2023/07/22 12:25:09;;;;;;;1.37;0.75;;;24.40;94.50;;;;;;4420872;32;20082;-75
2023/07/22 12:27:36;;;;;;;1.17;0.45;;;25.20;92.90;;;;;;4419681;32;20081;-76
2023/07/22 12:30:02;;;;;;;0.10;0.10;;;25.20;92.20;;;;;;4419035;32;20086;-76
2023/07/22 12:32:28;;;;;;;0.10;0.10;;;25.20;91.00;;;;;;4418797;32;20125;-75
2023/07/22 12:34:54;;;;;;;0.15;0.15;;;25.40;91.50;;;;;;4418765;32;20518;-78
2023/07/22 12:37:19;;;;;;;0.00;0.00;;;25.40;90.80;;;;;;4420749;32;20121;-74
2023/07/22 12:39:45;;;;;;;0.10;0.10;;;25.10;90.70;;;;;;4414632;32;20089;-74
2023/07/22 12:42:11;;;;;;;0.10;0.10;;;24.70;91.70;;;;;;4415128;32;20074;-73
2023/07/22 12:44:36;;;;;;;6.50;1.00;;;24.50;92.20;;;;;;4411303;32;20513;-75